sensor_id;sensor_type;location;lat;lon;timestamp;P1;durP1;ratioP1;P2;durP2;ratioP2
68212;SDS011;55035;47.792;8.724;2022-08-20T01:15:00;55.92;;;23.55;;
68212;SDS011;55035;47.792;8.724;2022-08-20T01:17:29;62.22;;;25.92;;
68212;SDS011;55035;47.792;8.724;2022-08-20T01:19:58;67.85;;;27.30;;
68212;SDS011;55035;47.792;8.724;2022-08-20T01:22:27;68.30;;;27.33;;
68212;SDS011;55035;47.792;8.724;2022-08-20T01:25:15;69.30;;;26.80;;
68212;SDS011;55035;47.792;8.724;2022-08-20T01:27:46;69.75;;;27.15;;
68212;SDS011;55035;47.792;8.724;2022-08-20T01:30:14;70.43;;;28.23;;
68212;SDS011;55035;47.792;8.724;2022-08-20T01:32:41;79.75;;;29.00;;
68212;SDS011;55035;47.792;8.724;2022-08-20T01:35:08;79.33;;;28.67;;
68212;SDS011;55035;47.792;8.724;2022-08-20T01:37:35;87.15;;;29.17;;
68212;SDS011;55035;47.792;8.724;2022-08-20T01:40:03;86.22;;;31.08;;
68212;SDS011;55035;47.792;8.724;2022-08-20T01:42:30;82.88;;;28.65;;
68212;SDS011;55035;47.792;8.724;2022-08-20T01:45:02;83.57;;;30.77;;
68212;SDS011;55035;47.792;8.724;2022-08-20T01:47:30;89.40;;;28.27;;
68212;SDS011;55035;47.792;8.724;2022-08-20T01:49:59;84.40;;;28.83;;
68212;SDS011;55035;47.792;8.724;2022-08-20T01:52:27;90.25;;;30.55;;
68212;SDS011;55035;47.792;8.724;2022-08-20T01:54:56;84.78;;;30.08;;
68212;SDS011;55035;47.792;8.724;2022-08-20T01:57:23;87.30;;;30.38;;
68212;SDS011;55035;47.792;8.724;2022-08-20T01:59:51;86.77;;;29.03;;
68212;SDS011;55035;47.792;8.724;2022-08-20T02:02:20;93.78;;;29.88;;
68212;SDS011;55035;47.792;8.724;2022-08-20T02:04:46;99.30;;;36.90;;
68212;SDS011;55035;47.792;8.724;2022-08-20T02:07:16;105.73;;;37.73;;
68212;SDS011;55035;47.792;8.724;2022-08-20T02:09:43;104.33;;;36.97;;
68212;SDS011;55035;47.792;8.724;2022-08-20T02:12:10;98.72;;;35.45;;
68212;SDS011;55035;47.792;8.724;2022-08-20T02:14:39;98.45;;;35.85;;
68212;SDS011;55035;47.792;8.724;2022-08-20T02:17:06;99.90;;;35.60;;
68212;SDS011;55035;47.792;8.724;2022-08-20T02:19:37;93.17;;;34.20;;
68212;SDS011;55035;47.792;8.724;2022-08-20T02:22:08;98.20;;;35.03;;
68212;SDS011;55035;47.792;8.724;2022-08-20T02:24:36;92.63;;;34.25;;
68212;SDS011;55035;47.792;8.724;2022-08-20T02:27:03;92.43;;;34.07;;
68212;SDS011;55035;47.792;8.724;2022-08-20T02:29:30;101.18;;;34.85;;
68212;SDS011;55035;47.792;8.724;2022-08-20T02:31:57;95.70;;;34.47;;
68212;SDS011;55035;47.792;8.724;2022-08-20T02:34:24;62.75;;;29.23;;
68212;SDS011;55035;47.792;8.724;2022-08-20T02:36:52;44.33;;;24.13;;
68212;SDS011;55035;47.792;8.724;2022-08-20T02:39:19;37.93;;;22.03;;
68212;SDS011;55035;47.792;8.724;2022-08-20T02:41:45;83.68;;;23.48;;
68212;SDS011;55035;47.792;8.724;2022-08-20T02:44:14;64.57;;;22.63;;
68212;SDS011;55035;47.792;8.724;2022-08-20T02:46:43;86.13;;;23.23;;
68212;SDS011;55035;47.792;8.724;2022-08-20T02:49:09;181.40;;;24.70;;
68212;SDS011;55035;47.792;8.724;2022-08-20T02:51:36;59.72;;;23.90;;
68212;SDS011;55035;47.792;8.724;2022-08-20T02:54:04;48.13;;;24.42;;
68212;SDS011;55035;47.792;8.724;2022-08-20T02:56:31;98.28;;;34.25;;
68212;SDS011;55035;47.792;8.724;2022-08-20T02:58:58;92.70;;;32.75;;
68212;SDS011;55035;47.792;8.724;2022-08-20T03:01:25;99.93;;;33.63;;
68212;SDS011;55035;47.792;8.724;2022-08-20T03:03:52;93.93;;;32.35;;
68212;SDS011;55035;47.792;8.724;2022-08-20T03:06:21;74.85;;;29.65;;
68212;SDS011;55035;47.792;8.724;2022-08-20T03:08:48;69.83;;;29.07;;
68212;SDS011;55035;47.792;8.724;2022-08-20T03:11:17;55.33;;;25.92;;
68212;SDS011;55035;47.792;8.724;2022-08-20T03:13:45;81.05;;;30.65;;
68212;SDS011;55035;47.792;8.724;2022-08-20T03:16:12;87.88;;;31.45;;
68212;SDS011;55035;47.792;8.724;2022-08-20T03:18:39;70.97;;;28.83;;
68212;SDS011;55035;47.792;8.724;2022-08-20T03:21:07;50.03;;;24.40;;
68212;SDS011;55035;47.792;8.724;2022-08-20T03:23:34;38.83;;;21.83;;
68212;SDS011;55035;47.792;8.724;2022-08-20T03:26:02;36.70;;;21.20;;
68212;SDS011;55035;47.792;8.724;2022-08-20T03:28:31;34.40;;;20.50;;
68212;SDS011;55035;47.792;8.724;2022-08-20T03:30:58;33.67;;;21.10;;
68212;SDS011;55035;47.792;8.724;2022-08-20T03:33:25;30.83;;;19.17;;
68212;SDS011;55035;47.792;8.724;2022-08-20T03:35:52;30.47;;;19.07;;
68212;SDS011;55035;47.792;8.724;2022-08-20T03:38:19;36.58;;;20.58;;
68212;SDS011;55035;47.792;8.724;2022-08-20T03:40:47;36.58;;;21.13;;
68212;SDS011;55035;47.792;8.724;2022-08-20T03:43:14;36.55;;;20.75;;
68212;SDS011;55035;47.792;8.724;2022-08-20T03:45:43;34.03;;;19.67;;
68212;SDS011;55035;47.792;8.724;2022-08-20T03:48:12;34.85;;;20.17;;
68212;SDS011;55035;47.792;8.724;2022-08-20T03:50:39;98.80;;;21.10;;
68212;SDS011;55035;47.792;8.724;2022-08-20T03:53:07;91.00;;;21.07;;
68212;SDS011;55035;47.792;8.724;2022-08-20T03:55:34;129.90;;;22.63;;
68212;SDS011;55035;47.792;8.724;2022-08-20T03:58:02;39.15;;;21.15;;
68212;SDS011;55035;47.792;8.724;2022-08-20T04:00:33;64.20;;;22.20;;
68212;SDS011;55035;47.792;8.724;2022-08-20T04:03:01;122.50;;;24.95;;
68212;SDS011;55035;47.792;8.724;2022-08-20T04:05:29;73.40;;;25.77;;
68212;SDS011;55035;47.792;8.724;2022-08-20T04:07:59;70.43;;;26.40;;
68212;SDS011;55035;47.792;8.724;2022-08-20T04:10:27;58.15;;;24.90;;
68212;SDS011;55035;47.792;8.724;2022-08-20T04:12:53;305.17;;;31.13;;
68212;SDS011;55035;47.792;8.724;2022-08-20T04:15:20;90.97;;;26.15;;
68212;SDS011;55035;47.792;8.724;2022-08-20T04:17:48;68.88;;;25.80;;
68212;SDS011;55035;47.792;8.724;2022-08-20T04:20:17;60.90;;;25.50;;
68212;SDS011;55035;47.792;8.724;2022-08-20T04:22:47;59.10;;;25.30;;
68212;SDS011;55035;47.792;8.724;2022-08-20T04:25:13;64.83;;;26.30;;
68212;SDS011;55035;47.792;8.724;2022-08-20T04:27:40;58.25;;;25.42;;
68212;SDS011;55035;47.792;8.724;2022-08-20T04:30:08;57.65;;;25.30;;
68212;SDS011;55035;47.792;8.724;2022-08-20T04:32:36;66.65;;;26.92;;
68212;SDS011;55035;47.792;8.724;2022-08-20T04:35:03;104.68;;;29.10;;
68212;SDS011;55035;47.792;8.724;2022-08-20T04:37:33;72.97;;;26.83;;
68212;SDS011;55035;47.792;8.724;2022-08-20T04:40:02;103.03;;;28.50;;
68212;SDS011;55035;47.792;8.724;2022-08-20T04:42:47;138.13;;;31.08;;
68212;SDS011;55035;47.792;8.724;2022-08-20T04:45:13;166.87;;;31.50;;
68212;SDS011;55035;47.792;8.724;2022-08-20T04:47:40;190.70;;;35.08;;
68212;SDS011;55035;47.792;8.724;2022-08-20T04:50:07;99.72;;;31.17;;
68212;SDS011;55035;47.792;8.724;2022-08-20T04:52:36;95.47;;;31.60;;
68212;SDS011;55035;47.792;8.724;2022-08-20T04:55:03;97.50;;;30.80;;
68212;SDS011;55035;47.792;8.724;2022-08-20T04:57:30;88.32;;;30.35;;
68212;SDS011;55035;47.792;8.724;2022-08-20T04:59:57;111.90;;;31.02;;
68212;SDS011;55035;47.792;8.724;2022-08-20T05:02:24;90.32;;;30.83;;
68212;SDS011;55035;47.792;8.724;2022-08-20T05:04:51;97.75;;;31.80;;
68212;SDS011;55035;47.792;8.724;2022-08-20T05:07:18;100.40;;;32.30;;
68212;SDS011;55035;47.792;8.724;2022-08-20T05:09:46;172.73;;;32.92;;
68212;SDS011;55035;47.792;8.724;2022-08-20T05:12:13;243.63;;;37.40;;
68212;SDS011;55035;47.792;8.724;2022-08-20T05:14:42;235.35;;;33.92;;
68212;SDS011;55035;47.792;8.724;2022-08-20T05:17:09;287.38;;;35.50;;
68212;SDS011;55035;47.792;8.724;2022-08-20T05:19:39;272.95;;;35.47;;
68212;SDS011;55035;47.792;8.724;2022-08-20T05:22:06;201.13;;;34.33;;
68212;SDS011;55035;47.792;8.724;2022-08-20T05:24:33;171.23;;;33.13;;
68212;SDS011;55035;47.792;8.724;2022-08-20T05:27:01;128.88;;;32.85;;
68212;SDS011;55035;47.792;8.724;2022-08-20T05:29:28;117.05;;;32.35;;
68212;SDS011;55035;47.792;8.724;2022-08-20T05:31:55;113.03;;;32.63;;
68212;SDS011;55035;47.792;8.724;2022-08-20T05:34:22;111.37;;;32.23;;
68212;SDS011;55035;47.792;8.724;2022-08-20T05:36:49;99.18;;;31.20;;
68212;SDS011;55035;47.792;8.724;2022-08-20T05:39:17;94.18;;;29.95;;
68212;SDS011;55035;47.792;8.724;2022-08-20T05:41:45;92.43;;;30.42;;
68212;SDS011;55035;47.792;8.724;2022-08-20T05:44:17;87.78;;;29.42;;
68212;SDS011;55035;47.792;8.724;2022-08-20T05:46:44;75.30;;;27.60;;
68212;SDS011;55035;47.792;8.724;2022-08-20T05:49:12;70.93;;;27.80;;
68212;SDS011;55035;47.792;8.724;2022-08-20T05:51:39;60.53;;;25.92;;
68212;SDS011;55035;47.792;8.724;2022-08-20T05:54:06;51.33;;;23.42;;
68212;SDS011;55035;47.792;8.724;2022-08-20T05:56:34;41.63;;;21.30;;
68212;SDS011;55035;47.792;8.724;2022-08-20T05:59:01;38.40;;;20.77;;
68212;SDS011;55035;47.792;8.724;2022-08-20T06:01:31;38.63;;;20.38;;
68212;SDS011;55035;47.792;8.724;2022-08-20T06:03:58;44.58;;;22.88;;
68212;SDS011;55035;47.792;8.724;2022-08-20T06:06:43;43.95;;;22.63;;
68212;SDS011;55035;47.792;8.724;2022-08-20T06:09:10;36.10;;;20.33;;
68212;SDS011;55035;47.792;8.724;2022-08-20T06:11:37;32.97;;;18.67;;
68212;SDS011;55035;47.792;8.724;2022-08-20T06:14:04;34.00;;;20.02;;
68212;SDS011;55035;47.792;8.724;2022-08-20T06:16:32;32.47;;;19.67;;
68212;SDS011;55035;47.792;8.724;2022-08-20T06:18:59;32.35;;;19.25;;
68212;SDS011;55035;47.792;8.724;2022-08-20T06:21:26;31.50;;;19.23;;
68212;SDS011;55035;47.792;8.724;2022-08-20T06:23:52;31.52;;;18.80;;
68212;SDS011;55035;47.792;8.724;2022-08-20T06:26:19;29.95;;;19.42;;
68212;SDS011;55035;47.792;8.724;2022-08-20T06:28:46;32.50;;;19.60;;
68212;SDS011;55035;47.792;8.724;2022-08-20T06:31:13;30.77;;;19.67;;
68212;SDS011;55035;47.792;8.724;2022-08-20T06:33:41;29.67;;;19.25;;
68212;SDS011;55035;47.792;8.724;2022-08-20T06:36:08;30.30;;;19.33;;
68212;SDS011;55035;47.792;8.724;2022-08-20T06:38:35;32.27;;;19.90;;
68212;SDS011;55035;47.792;8.724;2022-08-20T06:41:02;31.50;;;19.88;;
68212;SDS011;55035;47.792;8.724;2022-08-20T06:43:29;33.50;;;20.45;;
68212;SDS011;55035;47.792;8.724;2022-08-20T06:45:56;31.70;;;19.45;;
68212;SDS011;55035;47.792;8.724;2022-08-20T06:48:23;32.20;;;20.38;;
68212;SDS011;55035;47.792;8.724;2022-08-20T06:50:51;34.65;;;20.85;;
68212;SDS011;55035;47.792;8.724;2022-08-20T06:53:18;32.15;;;20.00;;
68212;SDS011;55035;47.792;8.724;2022-08-20T06:55:47;35.65;;;21.10;;
68212;SDS011;55035;47.792;8.724;2022-08-20T06:58:15;33.97;;;20.80;;
68212;SDS011;55035;47.792;8.724;2022-08-20T07:00:46;35.08;;;21.55;;
68212;SDS011;55035;47.792;8.724;2022-08-20T07:03:14;32.42;;;19.88;;
68212;SDS011;55035;47.792;8.724;2022-08-20T07:05:42;32.58;;;20.55;;
68212;SDS011;55035;47.792;8.724;2022-08-20T07:08:11;30.40;;;19.33;;
68212;SDS011;55035;47.792;8.724;2022-08-20T07:10:38;29.08;;;19.10;;
68212;SDS011;55035;47.792;8.724;2022-08-20T07:13:06;28.23;;;18.20;;
68212;SDS011;55035;47.792;8.724;2022-08-20T07:15:33;27.20;;;17.50;;
68212;SDS011;55035;47.792;8.724;2022-08-20T07:18:01;29.13;;;18.00;;
68212;SDS011;55035;47.792;8.724;2022-08-20T07:20:28;29.33;;;18.15;;
68212;SDS011;55035;47.792;8.724;2022-08-20T07:22:56;29.03;;;17.53;;
68212;SDS011;55035;47.792;8.724;2022-08-20T07:25:24;27.65;;;17.77;;
68212;SDS011;55035;47.792;8.724;2022-08-20T07:27:51;25.73;;;16.87;;
68212;SDS011;55035;47.792;8.724;2022-08-20T07:30:20;26.27;;;17.30;;
68212;SDS011;55035;47.792;8.724;2022-08-20T07:33:04;27.83;;;18.05;;
68212;SDS011;55035;47.792;8.724;2022-08-20T07:35:31;28.58;;;18.17;;
68212;SDS011;55035;47.792;8.724;2022-08-20T07:37:58;29.15;;;19.10;;
68212;SDS011;55035;47.792;8.724;2022-08-20T07:40:27;31.33;;;20.10;;
68212;SDS011;55035;47.792;8.724;2022-08-20T07:42:55;32.00;;;19.88;;
68212;SDS011;55035;47.792;8.724;2022-08-20T07:45:23;29.80;;;19.65;;
68212;SDS011;55035;47.792;8.724;2022-08-20T07:47:50;28.13;;;18.92;;
68212;SDS011;55035;47.792;8.724;2022-08-20T07:50:18;29.02;;;18.70;;
68212;SDS011;55035;47.792;8.724;2022-08-20T07:52:46;27.38;;;18.33;;
68212;SDS011;55035;47.792;8.724;2022-08-20T07:55:14;25.90;;;17.65;;
68212;SDS011;55035;47.792;8.724;2022-08-20T07:57:43;24.33;;;16.27;;
68212;SDS011;55035;47.792;8.724;2022-08-20T08:00:11;24.57;;;16.23;;
68212;SDS011;55035;47.792;8.724;2022-08-20T08:02:38;21.63;;;15.20;;
68212;SDS011;55035;47.792;8.724;2022-08-20T08:05:08;20.52;;;14.77;;
68212;SDS011;55035;47.792;8.724;2022-08-20T08:07:35;20.95;;;14.82;;
68212;SDS011;55035;47.792;8.724;2022-08-20T08:10:04;21.73;;;14.88;;
68212;SDS011;55035;47.792;8.724;2022-08-20T08:12:33;21.30;;;14.50;;
68212;SDS011;55035;47.792;8.724;2022-08-20T08:15:04;22.80;;;15.40;;
68212;SDS011;55035;47.792;8.724;2022-08-20T08:17:31;22.83;;;16.00;;
68212;SDS011;55035;47.792;8.724;2022-08-20T08:19:58;24.83;;;15.18;;
68212;SDS011;55035;47.792;8.724;2022-08-20T08:22:26;20.50;;;13.20;;
68212;SDS011;55035;47.792;8.724;2022-08-20T08:24:57;19.30;;;13.50;;
68212;SDS011;55035;47.792;8.724;2022-08-20T08:27:26;19.88;;;14.15;;
68212;SDS011;55035;47.792;8.724;2022-08-20T08:29:57;20.58;;;14.00;;
68212;SDS011;55035;47.792;8.724;2022-08-20T08:32:26;19.10;;;13.05;;
68212;SDS011;55035;47.792;8.724;2022-08-20T08:34:55;17.65;;;12.00;;
68212;SDS011;55035;47.792;8.724;2022-08-20T08:38:21;17.75;;;10.60;;
68212;SDS011;55035;47.792;8.724;2022-08-20T08:40:49;16.40;;;9.88;;
68212;SDS011;55035;47.792;8.724;2022-08-20T08:43:20;15.07;;;9.48;;
68212;SDS011;55035;47.792;8.724;2022-08-20T08:45:50;15.02;;;9.52;;
68212;SDS011;55035;47.792;8.724;2022-08-20T08:48:22;15.70;;;9.60;;
68212;SDS011;55035;47.792;8.724;2022-08-20T08:50:53;14.00;;;8.38;;
68212;SDS011;55035;47.792;8.724;2022-08-20T08:53:25;14.05;;;9.35;;
68212;SDS011;55035;47.792;8.724;2022-08-20T08:55:52;12.23;;;7.70;;
68212;SDS011;55035;47.792;8.724;2022-08-20T08:58:19;13.45;;;7.50;;
68212;SDS011;55035;47.792;8.724;2022-08-20T09:00:46;11.00;;;6.53;;
68212;SDS011;55035;47.792;8.724;2022-08-20T09:03:15;10.95;;;6.63;;
68212;SDS011;55035;47.792;8.724;2022-08-20T09:05:45;13.68;;;7.05;;
68212;SDS011;55035;47.792;8.724;2022-08-20T09:08:14;10.57;;;6.80;;
68212;SDS011;55035;47.792;8.724;2022-08-20T09:10:43;10.93;;;7.28;;
68212;SDS011;55035;47.792;8.724;2022-08-20T09:13:10;11.63;;;7.20;;
68212;SDS011;55035;47.792;8.724;2022-08-20T09:15:37;11.20;;;7.38;;
68212;SDS011;55035;47.792;8.724;2022-08-20T09:18:04;10.07;;;6.18;;
68212;SDS011;55035;47.792;8.724;2022-08-20T09:20:31;12.00;;;5.90;;
68212;SDS011;55035;47.792;8.724;2022-08-20T09:22:58;9.70;;;5.80;;
68212;SDS011;55035;47.792;8.724;2022-08-20T09:25:25;13.23;;;6.23;;
68212;SDS011;55035;47.792;8.724;2022-08-20T09:27:53;13.93;;;6.40;;
68212;SDS011;55035;47.792;8.724;2022-08-20T09:30:20;10.40;;;6.03;;
68212;SDS011;55035;47.792;8.724;2022-08-20T09:32:47;10.60;;;5.70;;
68212;SDS011;55035;47.792;8.724;2022-08-20T09:35:14;10.50;;;6.20;;
68212;SDS011;55035;47.792;8.724;2022-08-20T09:37:41;11.20;;;5.67;;
68212;SDS011;55035;47.792;8.724;2022-08-20T09:40:08;8.18;;;4.30;;
68212;SDS011;55035;47.792;8.724;2022-08-20T09:42:36;8.27;;;4.70;;
68212;SDS011;55035;47.792;8.724;2022-08-20T09:45:05;9.20;;;4.90;;
68212;SDS011;55035;47.792;8.724;2022-08-20T09:47:32;9.70;;;5.60;;
68212;SDS011;55035;47.792;8.724;2022-08-20T09:49:59;10.93;;;4.90;;
68212;SDS011;55035;47.792;8.724;2022-08-20T09:52:26;7.90;;;4.40;;
68212;SDS011;55035;47.792;8.724;2022-08-20T09:54:54;9.77;;;5.65;;
68212;SDS011;55035;47.792;8.724;2022-08-20T09:57:22;9.98;;;5.20;;
68212;SDS011;55035;47.792;8.724;2022-08-20T09:59:50;9.90;;;5.53;;
68212;SDS011;55035;47.792;8.724;2022-08-20T10:02:19;7.37;;;4.07;;
68212;SDS011;55035;47.792;8.724;2022-08-20T10:04:46;7.80;;;4.38;;
68212;SDS011;55035;47.792;8.724;2022-08-20T10:07:13;9.40;;;4.80;;
68212;SDS011;55035;47.792;8.724;2022-08-20T10:09:40;7.90;;;4.30;;
68212;SDS011;55035;47.792;8.724;2022-08-20T10:12:07;8.10;;;4.63;;
68212;SDS011;55035;47.792;8.724;2022-08-20T10:14:34;8.07;;;3.83;;
68212;SDS011;55035;47.792;8.724;2022-08-20T10:17:01;8.35;;;3.47;;
68212;SDS011;55035;47.792;8.724;2022-08-20T10:19:29;8.38;;;3.63;;
68212;SDS011;55035;47.792;8.724;2022-08-20T10:21:57;6.38;;;3.42;;
68212;SDS011;55035;47.792;8.724;2022-08-20T10:24:24;9.60;;;3.90;;
68212;SDS011;55035;47.792;8.724;2022-08-20T10:26:53;7.90;;;4.17;;
68212;SDS011;55035;47.792;8.724;2022-08-20T10:29:20;7.15;;;3.60;;
68212;SDS011;55035;47.792;8.724;2022-08-20T10:31:46;6.70;;;3.30;;
68212;SDS011;55035;47.792;8.724;2022-08-20T10:34:13;6.60;;;3.30;;
68212;SDS011;55035;47.792;8.724;2022-08-20T10:36:42;6.50;;;3.40;;
68212;SDS011;55035;47.792;8.724;2022-08-20T10:39:08;7.03;;;3.50;;
68212;SDS011;55035;47.792;8.724;2022-08-20T10:41:35;6.85;;;3.22;;
68212;SDS011;55035;47.792;8.724;2022-08-20T10:44:02;6.72;;;3.30;;
68212;SDS011;55035;47.792;8.724;2022-08-20T10:46:29;6.50;;;3.00;;
68212;SDS011;55035;47.792;8.724;2022-08-20T10:48:56;5.80;;;2.60;;
68212;SDS011;55035;47.792;8.724;2022-08-20T10:51:23;6.10;;;2.90;;
68212;SDS011;55035;47.792;8.724;2022-08-20T10:53:51;6.10;;;3.15;;
68212;SDS011;55035;47.792;8.724;2022-08-20T10:56:18;5.90;;;2.83;;
68212;SDS011;55035;47.792;8.724;2022-08-20T10:58:45;6.00;;;2.75;;
68212;SDS011;55035;47.792;8.724;2022-08-20T11:01:12;5.85;;;2.35;;
68212;SDS011;55035;47.792;8.724;2022-08-20T11:03:39;5.93;;;2.60;;
68212;SDS011;55035;47.792;8.724;2022-08-20T11:06:06;6.30;;;3.10;;
68212;SDS011;55035;47.792;8.724;2022-08-20T11:08:34;5.60;;;2.50;;
68212;SDS011;55035;47.792;8.724;2022-08-20T11:11:02;4.90;;;1.80;;
68212;SDS011;55035;47.792;8.724;2022-08-20T11:13:29;5.65;;;2.33;;
68212;SDS011;55035;47.792;8.724;2022-08-20T11:15:57;5.17;;;1.90;;
68212;SDS011;55035;47.792;8.724;2022-08-20T11:18:25;5.55;;;2.20;;
68212;SDS011;55035;47.792;8.724;2022-08-20T11:20:52;5.20;;;1.98;;
68212;SDS011;55035;47.792;8.724;2022-08-20T11:23:20;5.32;;;2.10;;
68212;SDS011;55035;47.792;8.724;2022-08-20T11:25:47;5.97;;;2.28;;
68212;SDS011;55035;47.792;8.724;2022-08-20T11:28:16;5.83;;;2.27;;
68212;SDS011;55035;47.792;8.724;2022-08-20T11:30:44;6.05;;;2.30;;
68212;SDS011;55035;47.792;8.724;2022-08-20T11:33:12;6.47;;;2.10;;
68212;SDS011;55035;47.792;8.724;2022-08-20T11:35:38;5.50;;;2.10;;
68212;SDS011;55035;47.792;8.724;2022-08-20T11:38:05;6.10;;;2.60;;
68212;SDS011;55035;47.792;8.724;2022-08-20T11:40:32;7.20;;;2.30;;
68212;SDS011;55035;47.792;8.724;2022-08-20T11:42:59;5.20;;;2.03;;
68212;SDS011;55035;47.792;8.724;2022-08-20T11:45:28;5.90;;;2.47;;
68212;SDS011;55035;47.792;8.724;2022-08-20T11:47:55;5.32;;;2.03;;
68212;SDS011;55035;47.792;8.724;2022-08-20T11:50:22;5.57;;;2.17;;
68212;SDS011;55035;47.792;8.724;2022-08-20T11:52:49;5.73;;;2.30;;
68212;SDS011;55035;47.792;8.724;2022-08-20T11:55:16;5.20;;;2.40;;
68212;SDS011;55035;47.792;8.724;2022-08-20T11:57:43;6.20;;;1.88;;
68212;SDS011;55035;47.792;8.724;2022-08-20T12:00:12;4.95;;;2.10;;
68212;SDS011;55035;47.792;8.724;2022-08-20T12:02:41;5.65;;;2.63;;
68212;SDS011;55035;47.792;8.724;2022-08-20T12:05:11;6.40;;;2.00;;
68212;SDS011;55035;47.792;8.724;2022-08-20T12:07:38;5.63;;;2.25;;
68212;SDS011;55035;47.792;8.724;2022-08-20T12:10:06;5.72;;;2.50;;
68212;SDS011;55035;47.792;8.724;2022-08-20T12:12:35;5.20;;;2.35;;
68212;SDS011;55035;47.792;8.724;2022-08-20T12:15:02;5.20;;;2.70;;
68212;SDS011;55035;47.792;8.724;2022-08-20T12:17:29;5.87;;;2.40;;
68212;SDS011;55035;47.792;8.724;2022-08-20T12:19:59;5.35;;;1.95;;
68212;SDS011;55035;47.792;8.724;2022-08-20T12:22:26;5.00;;;2.22;;
68212;SDS011;55035;47.792;8.724;2022-08-20T12:24:53;5.72;;;2.30;;
68212;SDS011;55035;47.792;8.724;2022-08-20T12:27:21;5.07;;;2.22;;
68212;SDS011;55035;47.792;8.724;2022-08-20T12:29:49;5.77;;;2.63;;
68212;SDS011;55035;47.792;8.724;2022-08-20T12:32:17;6.85;;;2.40;;
68212;SDS011;55035;47.792;8.724;2022-08-20T12:34:44;5.40;;;2.40;;
68212;SDS011;55035;47.792;8.724;2022-08-20T12:37:13;6.32;;;3.03;;
68212;SDS011;55035;47.792;8.724;2022-08-20T12:39:41;6.25;;;3.03;;
68212;SDS011;55035;47.792;8.724;2022-08-20T12:42:08;6.77;;;3.00;;
68212;SDS011;55035;47.792;8.724;2022-08-20T12:44:36;9.38;;;3.13;;
68212;SDS011;55035;47.792;8.724;2022-08-20T12:47:07;12.85;;;3.03;;
68212;SDS011;55035;47.792;8.724;2022-08-20T12:49:34;8.90;;;3.22;;
68212;SDS011;55035;47.792;8.724;2022-08-20T12:52:01;5.93;;;2.25;;
68212;SDS011;55035;47.792;8.724;2022-08-20T12:54:30;14.23;;;2.43;;
68212;SDS011;55035;47.792;8.724;2022-08-20T12:56:57;9.32;;;2.25;;
68212;SDS011;55035;47.792;8.724;2022-08-20T12:59:23;4.93;;;1.00;;
68212;SDS011;55035;47.792;8.724;2022-08-20T13:01:51;4.60;;;1.00;;
68212;SDS011;55035;47.792;8.724;2022-08-20T13:04:18;4.10;;;1.10;;
68212;SDS011;55035;47.792;8.724;2022-08-20T13:06:45;6.07;;;1.03;;
68212;SDS011;55035;47.792;8.724;2022-08-20T13:09:12;5.65;;;1.05;;
68212;SDS011;55035;47.792;8.724;2022-08-20T13:11:41;7.03;;;1.98;;
68212;SDS011;55035;47.792;8.724;2022-08-20T13:14:07;5.60;;;1.20;;
68212;SDS011;55035;47.792;8.724;2022-08-20T13:16:34;4.70;;;1.33;;
68212;SDS011;55035;47.792;8.724;2022-08-20T13:19:01;5.13;;;1.40;;
68212;SDS011;55035;47.792;8.724;2022-08-20T13:21:29;4.70;;;1.13;;
68212;SDS011;55035;47.792;8.724;2022-08-20T13:23:55;5.47;;;1.48;;
68212;SDS011;55035;47.792;8.724;2022-08-20T13:26:22;5.65;;;1.52;;
68212;SDS011;55035;47.792;8.724;2022-08-20T13:28:50;5.57;;;1.30;;
68212;SDS011;55035;47.792;8.724;2022-08-20T13:31:17;5.73;;;1.40;;
68212;SDS011;55035;47.792;8.724;2022-08-20T13:33:44;5.20;;;1.45;;
68212;SDS011;55035;47.792;8.724;2022-08-20T13:36:11;4.75;;;1.20;;
68212;SDS011;55035;47.792;8.724;2022-08-20T13:38:38;5.72;;;1.10;;
68212;SDS011;55035;47.792;8.724;2022-08-20T13:41:05;4.75;;;1.48;;
68212;SDS011;55035;47.792;8.724;2022-08-20T13:43:32;6.30;;;1.90;;
68212;SDS011;55035;47.792;8.724;2022-08-20T13:46:00;5.32;;;1.63;;
68212;SDS011;55035;47.792;8.724;2022-08-20T13:48:27;4.78;;;1.35;;
68212;SDS011;55035;47.792;8.724;2022-08-20T13:50:54;4.57;;;1.13;;
68212;SDS011;55035;47.792;8.724;2022-08-20T13:53:21;5.22;;;1.13;;
68212;SDS011;55035;47.792;8.724;2022-08-20T13:55:47;4.37;;;1.20;;
68212;SDS011;55035;47.792;8.724;2022-08-20T13:58:14;4.57;;;1.25;;
68212;SDS011;55035;47.792;8.724;2022-08-20T14:00:42;5.70;;;1.58;;
68212;SDS011;55035;47.792;8.724;2022-08-20T14:03:11;4.57;;;1.50;;
68212;SDS011;55035;47.792;8.724;2022-08-20T14:05:38;4.22;;;1.13;;
68212;SDS011;55035;47.792;8.724;2022-08-20T14:08:06;5.50;;;1.43;;
68212;SDS011;55035;47.792;8.724;2022-08-20T14:10:33;5.15;;;1.35;;
68212;SDS011;55035;47.792;8.724;2022-08-20T14:13:01;4.70;;;1.40;;
68212;SDS011;55035;47.792;8.724;2022-08-20T14:15:30;4.68;;;1.70;;
68212;SDS011;55035;47.792;8.724;2022-08-20T14:17:57;5.60;;;1.60;;
68212;SDS011;55035;47.792;8.724;2022-08-20T14:20:26;4.90;;;1.77;;
68212;SDS011;55035;47.792;8.724;2022-08-20T14:22:54;4.30;;;1.30;;
68212;SDS011;55035;47.792;8.724;2022-08-20T14:25:21;16.70;;;8.93;;
68212;SDS011;55035;47.792;8.724;2022-08-20T14:27:48;5.40;;;1.88;;
68212;SDS011;55035;47.792;8.724;2022-08-20T14:30:16;6.65;;;2.92;;
68212;SDS011;55035;47.792;8.724;2022-08-20T14:32:45;5.23;;;1.53;;
68212;SDS011;55035;47.792;8.724;2022-08-20T14:35:12;6.15;;;2.17;;
68212;SDS011;55035;47.792;8.724;2022-08-20T14:37:42;5.78;;;1.88;;
68212;SDS011;55035;47.792;8.724;2022-08-20T14:40:10;5.60;;;1.67;;
68212;SDS011;55035;47.792;8.724;2022-08-20T14:42:38;5.18;;;1.50;;
68212;SDS011;55035;47.792;8.724;2022-08-20T14:45:06;4.90;;;1.97;;
68212;SDS011;55035;47.792;8.724;2022-08-20T14:47:33;4.90;;;1.80;;
68212;SDS011;55035;47.792;8.724;2022-08-20T14:50:05;10.95;;;4.55;;
68212;SDS011;55035;47.792;8.724;2022-08-20T14:52:36;4.50;;;1.65;;
68212;SDS011;55035;47.792;8.724;2022-08-20T14:55:07;3.30;;;0.95;;
68212;SDS011;55035;47.792;8.724;2022-08-20T14:57:34;4.00;;;1.40;;
68212;SDS011;55035;47.792;8.724;2022-08-20T15:00:03;3.60;;;1.00;;
68212;SDS011;55035;47.792;8.724;2022-08-20T15:02:31;3.88;;;0.98;;
68212;SDS011;55035;47.792;8.724;2022-08-20T15:04:57;3.78;;;1.25;;
68212;SDS011;55035;47.792;8.724;2022-08-20T15:07:25;3.72;;;1.15;;
68212;SDS011;55035;47.792;8.724;2022-08-20T15:09:53;4.20;;;1.40;;
68212;SDS011;55035;47.792;8.724;2022-08-20T15:12:21;4.75;;;1.25;;
68212;SDS011;55035;47.792;8.724;2022-08-20T15:14:51;4.40;;;1.27;;
68212;SDS011;55035;47.792;8.724;2022-08-20T15:17:18;4.30;;;1.30;;
68212;SDS011;55035;47.792;8.724;2022-08-20T15:19:46;4.45;;;1.35;;
68212;SDS011;55035;47.792;8.724;2022-08-20T15:22:13;4.00;;;1.10;;
68212;SDS011;55035;47.792;8.724;2022-08-20T15:24:40;5.28;;;1.40;;
68212;SDS011;55035;47.792;8.724;2022-08-20T15:27:10;4.22;;;1.50;;
68212;SDS011;55035;47.792;8.724;2022-08-20T15:29:39;5.07;;;1.30;;
68212;SDS011;55035;47.792;8.724;2022-08-20T15:32:06;4.30;;;1.30;;
68212;SDS011;55035;47.792;8.724;2022-08-20T15:34:33;4.03;;;1.30;;
68212;SDS011;55035;47.792;8.724;2022-08-20T15:37:04;4.85;;;1.38;;
68212;SDS011;55035;47.792;8.724;2022-08-20T15:39:31;4.72;;;1.38;;
68212;SDS011;55035;47.792;8.724;2022-08-20T15:41:58;7.40;;;2.47;;
68212;SDS011;55035;47.792;8.724;2022-08-20T15:44:25;17.23;;;6.97;;
68212;SDS011;55035;47.792;8.724;2022-08-20T15:46:53;12.17;;;4.47;;
68212;SDS011;55035;47.792;8.724;2022-08-20T15:49:20;17.85;;;7.28;;
68212;SDS011;55035;47.792;8.724;2022-08-20T15:51:47;18.52;;;8.40;;